Terminal Aerodrome Forecast
Issued by NWS Melbourne, FL

Current Version | Previous Version | Text Only | Print | Product List | Glossary On
Versions: 1 2 3 4 5 6 7 8 9 10 11 12 13 14 15 16 17 18 19 20 21 22
000
FTUS42 KMLB 011734
TAFVRB
TAF
KVRB 011734Z 0118/0218 13013KT P6SM SCT020
     FM020000 11006KT P6SM SCT020 BKN080
     FM020900 07003KT 5SM BR BKN005
      TEMPO 0210/0213 1SM MIFG BKN002
     FM021400 VRB03KT P6SM BKN015
     FM021600 06008KT P6SM SCT025=

USA.gov is the U.S. government's official web portal to all federal, state and local government web resources and services.